Time;durP1;ratioP1;P1;durP2;ratioP2;P2;SDS_P1;SDS_P2;PMS_P1;PMS_P2;Temp;Humidity;BMP_temperature;BMP_pressure;BME280_temperature;BME280_humidity;BME280_pressure;Samples;Min_cycle;Max_cycle;Signal;HPM_P1;HPM_P2
2022/05/30 00:00:14;;;;;;;0.77;0.63;;;12.20;66.40;;;;;;5019813;28;20398;-78
2022/05/30 00:02:40;;;;;;;1.90;0.80;;;12.10;66.30;;;;;;5035915;28;20473;-79
2022/05/30 00:05:08;;;;;;;1.55;0.98;;;12.00;66.40;;;;;;5011405;28;20609;-78
2022/05/30 00:07:35;;;;;;;1.10;0.70;;;12.10;66.70;;;;;;5037869;28;20037;-78
2022/05/30 00:10:01;;;;;;;0.93;0.70;;;12.00;66.70;;;;;;5012938;28;20025;-78
2022/05/30 00:12:26;;;;;;;1.47;0.80;;;11.90;66.00;;;;;;5036235;28;20040;-78
2022/05/30 00:14:52;;;;;;;2.20;0.90;;;11.90;66.70;;;;;;5028369;28;20387;-79
2022/05/30 00:17:17;;;;;;;1.30;0.70;;;11.90;66.80;;;;;;5019358;28;20147;-79
2022/05/30 00:19:43;;;;;;;1.67;0.80;;;11.90;66.80;;;;;;5010473;28;20042;-78
2022/05/30 00:22:14;;;;;;;1.13;0.80;;;11.90;66.80;;;;;;5038403;28;20210;-78
2022/05/30 00:24:41;;;;;;;1.85;0.73;;;11.80;66.70;;;;;;5035971;28;20090;-78
2022/05/30 00:27:08;;;;;;;1.00;0.70;;;11.70;66.60;;;;;;5038516;28;20352;-78
2022/05/30 00:29:35;;;;;;;1.67;0.80;;;11.60;66.60;;;;;;5033367;28;20047;-78
2022/05/30 00:32:01;;;;;;;1.00;0.70;;;11.60;66.60;;;;;;5019007;28;20200;-78
2022/05/30 00:34:27;;;;;;;0.90;0.70;;;11.50;66.60;;;;;;5034705;28;20544;-78
2022/05/30 00:36:53;;;;;;;0.75;0.70;;;11.50;66.60;;;;;;5017172;28;20037;-78
2022/05/30 00:39:19;;;;;;;1.17;0.60;;;11.40;66.70;;;;;;5039312;28;20365;-78
2022/05/30 00:41:45;;;;;;;1.45;0.80;;;11.30;66.80;;;;;;5015056;28;20063;-78
2022/05/30 00:44:11;;;;;;;2.40;0.70;;;11.30;66.80;;;;;;5034039;28;20477;-78
2022/05/30 00:46:37;;;;;;;1.13;0.60;;;11.20;66.80;;;;;;5027666;28;20787;-78
2022/05/30 00:49:08;;;;;;;1.30;0.80;;;11.10;66.80;;;;;;5028288;28;20124;-78
2022/05/30 00:51:39;;;;;;;0.95;0.70;;;11.10;67.20;;;;;;5014316;28;20037;-78
2022/05/30 00:54:08;;;;;;;1.30;0.83;;;11.00;67.10;;;;;;5023591;28;20043;-78
2022/05/30 00:56:39;;;;;;;1.70;0.60;;;10.90;67.10;;;;;;5026318;28;20064;-78
2022/05/30 00:59:05;;;;;;;1.02;0.70;;;10.90;67.10;;;;;;5033282;28;20045;-78
2022/05/30 01:01:32;;;;;;;1.10;0.73;;;10.80;67.00;;;;;;5032221;28;20525;-78
2022/05/30 01:06:46;;;;;;;1.00;0.80;;;10.70;67.20;;;;;;5021042;28;20405;-78
2022/05/30 01:09:17;;;;;;;1.48;0.70;;;10.70;67.20;;;;;;5021800;28;20043;-79
2022/05/30 01:12:02;;;;;;;1.20;0.65;;;10.60;67.20;;;;;;5035041;28;20083;-78
2022/05/30 01:14:39;;;;;;;0.90;0.77;;;10.50;68.10;;;;;;5027137;28;20024;-78
2022/05/30 01:17:08;;;;;;;1.00;0.88;;;10.50;68.70;;;;;;5030504;28;20072;-78
2022/05/30 01:19:46;;;;;;;1.20;0.70;;;10.40;67.30;;;;;;5040545;28;20586;-78
2022/05/30 01:22:36;;;;;;;1.10;0.70;;;10.40;67.60;;;;;;5013720;28;20468;-78
2022/05/30 01:25:14;;;;;;;1.35;0.70;;;10.30;67.80;;;;;;5030030;28;20084;-78
2022/05/30 01:28:07;;;;;;;1.20;0.60;;;10.20;68.20;;;;;;5027809;28;20037;-78
2022/05/30 01:30:35;;;;;;;0.80;0.70;;;10.20;68.40;;;;;;5038226;28;20439;-78
2022/05/30 01:33:01;;;;;;;0.90;0.70;;;10.20;67.60;;;;;;5019065;28;20040;-78
2022/05/30 01:35:28;;;;;;;0.65;0.60;;;10.10;67.60;;;;;;5023363;28;20041;-78
2022/05/30 01:37:57;;;;;;;1.00;0.80;;;10.10;67.70;;;;;;5019878;28;20029;-78
2022/05/30 01:40:24;;;;;;;0.73;0.68;;;10.00;67.90;;;;;;5023225;28;20021;-78
2022/05/30 01:42:49;;;;;;;1.20;0.80;;;10.00;67.70;;;;;;5022725;28;20032;-78
2022/05/30 01:45:15;;;;;;;8.50;4.30;;;9.90;67.70;;;;;;5033597;28;20029;-78
2022/05/30 01:47:41;;;;;;;13.50;5.97;;;9.90;67.80;;;;;;5029005;28;20095;-78
2022/05/30 01:50:07;;;;;;;14.13;5.93;;;9.90;67.80;;;;;;5015261;28;20030;-78
2022/05/30 01:52:33;;;;;;;10.57;3.95;;;9.90;67.90;;;;;;5028660;28;20541;-78
2022/05/30 01:54:59;;;;;;;8.75;3.50;;;9.80;67.90;;;;;;5004536;28;20120;-78
2022/05/30 01:57:24;;;;;;;5.93;2.50;;;9.80;67.90;;;;;;5024410;28;20131;-78
2022/05/30 01:59:50;;;;;;;5.57;2.20;;;9.70;68.00;;;;;;5026236;28;20138;-78
2022/05/30 02:02:16;;;;;;;3.90;1.60;;;9.70;68.10;;;;;;5033148;28;20041;-78
2022/05/30 02:04:41;;;;;;;2.70;1.30;;;9.70;68.00;;;;;;5032017;28;20056;-78
2022/05/30 02:07:07;;;;;;;1.90;0.93;;;9.70;68.10;;;;;;5021538;28;20344;-78
2022/05/30 02:09:33;;;;;;;1.60;1.00;;;9.60;68.10;;;;;;5020619;28;20045;-78
2022/05/30 02:11:59;;;;;;;1.60;0.90;;;9.60;68.20;;;;;;5025679;28;20033;-78
2022/05/30 02:14:25;;;;;;;1.08;0.75;;;9.50;68.10;;;;;;5024067;28;20089;-78
2022/05/30 02:17:06;;;;;;;1.45;0.90;;;9.50;68.30;;;;;;5035405;28;20447;-78
2022/05/30 02:19:36;;;;;;;1.50;0.90;;;9.50;68.30;;;;;;5026860;28;20041;-78
2022/05/30 02:22:02;;;;;;;1.65;0.70;;;9.50;68.50;;;;;;5041095;28;20047;-78
2022/05/30 02:24:28;;;;;;;0.90;0.70;;;9.40;68.30;;;;;;5027841;28;20044;-78
2022/05/30 02:26:54;;;;;;;1.05;0.80;;;9.40;68.40;;;;;;5018395;28;20072;-78
2022/05/30 02:29:20;;;;;;;0.80;0.80;;;9.30;68.30;;;;;;5039112;28;20049;-78
2022/05/30 02:31:46;;;;;;;1.13;0.80;;;9.30;69.30;;;;;;5039185;28;20064;-78
2022/05/30 02:36:56;;;;;;;1.10;0.80;;;9.30;69.30;;;;;;5039656;28;20025;-78
2022/05/30 02:39:24;;;;;;;0.90;0.73;;;9.20;68.50;;;;;;5034975;28;20062;-79
2022/05/30 02:41:51;;;;;;;1.25;0.80;;;9.20;68.60;;;;;;5016848;28;20051;-78
2022/05/30 02:44:20;;;;;;;1.27;0.90;;;9.20;68.60;;;;;;5035855;28;20133;-78
2022/05/30 02:46:51;;;;;;;1.00;0.70;;;9.10;68.60;;;;;;5029767;28;20028;-78
2022/05/30 02:49:17;;;;;;;0.80;0.70;;;9.10;68.80;;;;;;5017116;28;20041;-78
2022/05/30 02:51:44;;;;;;;1.13;0.80;;;9.10;68.60;;;;;;5038959;28;20544;-78
2022/05/30 02:54:11;;;;;;;1.27;0.70;;;9.10;68.70;;;;;;5043421;28;20123;-79
2022/05/30 02:56:38;;;;;;;0.80;0.70;;;9.00;68.70;;;;;;5020767;28;20065;-78
2022/05/30 02:59:04;;;;;;;1.07;0.70;;;9.00;68.60;;;;;;5025045;28;20344;-79
2022/05/30 03:01:31;;;;;;;0.95;0.70;;;9.00;68.80;;;;;;5031790;28;20044;-78
2022/05/30 03:03:58;;;;;;;1.10;0.90;;;9.00;68.80;;;;;;5030307;28;20040;-79
2022/05/30 03:06:25;;;;;;;1.00;0.77;;;8.90;68.80;;;;;;5033999;28;20029;-78
2022/05/30 03:08:51;;;;;;;1.00;0.80;;;8.90;68.80;;;;;;5038285;28;20075;-79
2022/05/30 03:11:17;;;;;;;0.77;0.70;;;8.90;68.80;;;;;;5022861;28;20349;-78
2022/05/30 03:13:43;;;;;;;1.00;0.80;;;8.90;68.90;;;;;;5026410;28;20038;-79
2022/05/30 03:16:09;;;;;;;1.50;0.80;;;8.80;68.90;;;;;;5025416;28;20251;-79
2022/05/30 03:18:34;;;;;;;1.05;0.80;;;8.80;69.00;;;;;;5022153;28;20051;-79
2022/05/30 03:21:00;;;;;;;1.47;0.80;;;8.80;69.00;;;;;;5027552;28;20065;-79
2022/05/30 03:23:26;;;;;;;1.73;0.90;;;8.80;69.10;;;;;;5033350;28;20056;-79
2022/05/30 03:25:51;;;;;;;1.17;0.80;;;8.80;69.10;;;;;;5028698;28;20029;-79
2022/05/30 03:28:17;;;;;;;1.00;0.70;;;8.70;69.10;;;;;;5019783;28;20045;-79
2022/05/30 03:30:44;;;;;;;1.87;0.80;;;8.70;69.20;;;;;;5024481;28;20041;-79
2022/05/30 03:33:10;;;;;;;1.55;0.80;;;8.70;69.20;;;;;;5034163;28;20084;-79
2022/05/30 03:35:36;;;;;;;0.88;0.57;;;8.70;69.20;;;;;;5034830;28;20083;-79
2022/05/30 03:38:03;;;;;;;1.20;0.80;;;8.70;69.30;;;;;;5036006;28;20039;-79
2022/05/30 03:40:29;;;;;;;1.07;0.90;;;8.60;69.20;;;;;;5031625;28;20528;-79
2022/05/30 03:42:55;;;;;;;1.35;0.90;;;8.60;69.20;;;;;;5010791;28;20041;-79
2022/05/30 03:45:21;;;;;;;2.03;0.90;;;8.60;69.30;;;;;;5028640;28;20357;-79
2022/05/30 03:47:47;;;;;;;1.35;0.90;;;8.60;69.40;;;;;;5025639;28;20102;-79
2022/05/30 03:50:19;;;;;;;0.70;0.65;;;8.50;69.50;;;;;;5021782;28;20233;-79
2022/05/30 03:52:46;;;;;;;1.00;0.70;;;8.50;69.90;;;;;;5032632;28;20433;-79
2022/05/30 03:55:15;;;;;;;1.42;0.70;;;8.50;69.50;;;;;;5026130;28;20036;-79
2022/05/30 03:57:41;;;;;;;1.63;0.70;;;8.50;69.80;;;;;;5045776;28;20155;-80
2022/05/30 04:00:20;;;;;;;1.10;0.77;;;8.50;69.60;;;;;;5002239;28;20045;-79
2022/05/30 04:02:49;;;;;;;1.27;0.80;;;8.40;70.20;;;;;;5021455;28;20064;-79
2022/05/30 04:05:18;;;;;;;0.82;0.80;;;8.40;69.60;;;;;;5029656;28;20527;-79
2022/05/30 04:07:44;;;;;;;1.27;1.10;;;8.40;69.90;;;;;;5019022;28;20092;-79
2022/05/30 04:10:11;;;;;;;1.43;0.83;;;8.40;69.80;;;;;;5033259;28;20605;-79
2022/05/30 04:12:38;;;;;;;1.48;0.80;;;8.40;69.80;;;;;;5041031;28;20132;-79
2022/05/30 04:15:07;;;;;;;1.25;0.63;;;8.40;69.90;;;;;;4999156;28;20033;-79
2022/05/30 04:17:35;;;;;;;1.20;0.80;;;8.40;70.00;;;;;;5054857;28;20045;-79
2022/05/30 04:20:02;;;;;;;1.15;0.75;;;8.40;70.10;;;;;;5024981;28;20025;-79
2022/05/30 04:22:27;;;;;;;0.97;0.80;;;8.40;70.10;;;;;;5043851;28;20306;-79
2022/05/30 04:24:55;;;;;;;1.45;0.80;;;8.40;70.20;;;;;;5022533;28;20370;-79
2022/05/30 04:27:21;;;;;;;1.30;0.90;;;8.40;70.40;;;;;;5023808;28;20822;-79
2022/05/30 04:29:46;;;;;;;1.00;0.77;;;8.50;70.60;;;;;;5037334;28;20525;-79
2022/05/30 04:32:12;;;;;;;1.10;0.80;;;8.50;70.90;;;;;;5014646;28;20040;-79
2022/05/30 04:34:38;;;;;;;1.98;1.00;;;8.50;71.00;;;;;;5029159;28;20033;-79
2022/05/30 04:37:04;;;;;;;1.20;0.90;;;8.60;71.30;;;;;;5032200;28;20126;-79
2022/05/30 04:39:30;;;;;;;1.53;0.80;;;8.70;71.50;;;;;;5024271;28;20045;-79
2022/05/30 04:41:56;;;;;;;1.77;0.90;;;8.70;71.70;;;;;;5030457;28;20077;-79
2022/05/30 04:44:21;;;;;;;1.55;0.70;;;8.80;71.90;;;;;;5030954;28;20032;-79
2022/05/30 04:46:52;;;;;;;1.73;0.90;;;8.90;72.10;;;;;;5018370;28;20029;-79
2022/05/30 04:49:17;;;;;;;1.60;0.75;;;9.00;73.10;;;;;;5010271;28;20357;-79
2022/05/30 04:51:43;;;;;;;2.03;1.00;;;9.20;72.50;;;;;;5039645;28;20644;-79
2022/05/30 04:54:08;;;;;;;1.42;0.75;;;9.30;72.60;;;;;;5020816;28;20404;-79
2022/05/30 04:56:34;;;;;;;1.50;0.97;;;9.40;72.70;;;;;;5041243;28;20473;-79
2022/05/30 04:59:00;;;;;;;2.03;1.13;;;9.50;72.70;;;;;;5018168;28;20082;-79
2022/05/30 05:01:27;;;;;;;1.30;1.00;;;9.60;72.90;;;;;;5008499;28;20489;-79
2022/05/30 05:03:52;;;;;;;1.83;1.05;;;9.70;72.90;;;;;;5018507;28;20612;-79
2022/05/30 05:06:20;;;;;;;1.57;0.93;;;9.80;72.80;;;;;;5021650;28;20157;-79
2022/05/30 05:08:53;;;;;;;1.58;0.98;;;9.90;73.00;;;;;;5032869;28;20048;-79
2022/05/30 05:11:29;;;;;;;1.80;1.00;;;10.00;73.50;;;;;;5027910;28;20119;-79
2022/05/30 05:13:55;;;;;;;1.30;1.10;;;10.10;73.00;;;;;;5035070;28;20128;-79
2022/05/30 05:16:27;;;;;;;2.53;1.10;;;10.30;73.20;;;;;;5011938;28;20301;-79
2022/05/30 05:18:53;;;;;;;1.75;1.10;;;10.30;73.20;;;;;;5014477;28;20570;-79
2022/05/30 05:21:24;;;;;;;1.98;1.10;;;10.50;73.30;;;;;;5012790;28;20261;-79
2022/05/30 05:23:49;;;;;;;3.35;1.20;;;10.60;73.50;;;;;;5035789;28;20068;-79
2022/05/30 05:26:16;;;;;;;2.50;1.30;;;10.60;73.20;;;;;;5026107;28;20124;-79
2022/05/30 05:28:41;;;;;;;3.17;1.30;;;10.80;73.40;;;;;;5017243;28;20037;-79
2022/05/30 05:31:09;;;;;;;1.85;1.17;;;10.90;73.50;;;;;;5027381;28;20029;-79
2022/05/30 05:33:35;;;;;;;1.83;1.13;;;11.00;73.60;;;;;;5011657;28;20435;-79
2022/05/30 05:36:01;;;;;;;1.35;1.10;;;11.10;73.50;;;;;;5023888;28;20025;-79
2022/05/30 05:38:27;;;;;;;7.22;1.50;;;11.10;73.50;;;;;;5016978;28;20429;-78
2022/05/30 05:40:53;;;;;;;1.60;1.30;;;11.20;73.50;;;;;;5021768;28;20036;-78
2022/05/30 05:43:19;;;;;;;1.87;1.20;;;11.30;73.50;;;;;;5026306;28;20835;-79
2022/05/30 05:45:46;;;;;;;2.20;1.08;;;11.40;73.50;;;;;;5026917;28;20045;-79
2022/05/30 05:48:13;;;;;;;3.08;1.50;;;11.50;73.50;;;;;;4994131;28;20064;-80
2022/05/30 05:50:40;;;;;;;1.98;1.30;;;11.60;73.60;;;;;;5028731;28;20199;-81
2022/05/30 05:53:06;;;;;;;1.83;1.10;;;11.70;73.70;;;;;;5021603;28;20314;-80
2022/05/30 05:55:32;;;;;;;1.45;1.17;;;11.70;73.80;;;;;;5029522;28;20029;-81
2022/05/30 05:57:58;;;;;;;1.77;1.10;;;11.80;73.90;;;;;;5021063;28;20044;-81
2022/05/30 06:00:24;;;;;;;1.53;1.10;;;11.90;74.00;;;;;;5035546;28;20021;-81
2022/05/30 06:02:49;;;;;;;1.83;1.20;;;12.00;74.00;;;;;;5021278;28;20025;-80
2022/05/30 06:05:15;;;;;;;1.95;1.38;;;12.10;74.00;;;;;;5014260;28;20325;-80
2022/05/30 06:07:42;;;;;;;4.43;1.20;;;12.20;74.00;;;;;;5032816;28;20551;-80
2022/05/30 06:10:12;;;;;;;2.25;1.20;;;12.30;74.00;;;;;;5003905;28;20416;-80
2022/05/30 06:12:42;;;;;;;3.13;1.27;;;12.40;74.10;;;;;;5036421;28;20425;-78
2022/05/30 06:15:10;;;;;;;3.37;1.27;;;12.40;74.10;;;;;;5037766;28;20137;-78
2022/05/30 06:17:40;;;;;;;1.60;1.00;;;12.50;74.20;;;;;;5026349;28;20106;-78
2022/05/30 06:20:07;;;;;;;2.72;1.33;;;12.60;74.40;;;;;;5019087;28;20104;-78
2022/05/30 06:22:33;;;;;;;3.15;1.15;;;12.70;74.30;;;;;;5029949;28;20064;-79
2022/05/30 06:24:59;;;;;;;3.87;1.10;;;12.80;74.30;;;;;;5020960;28;20034;-78
2022/05/30 06:27:24;;;;;;;1.85;1.20;;;12.90;74.20;;;;;;5003496;28;20049;-78
2022/05/30 06:29:51;;;;;;;2.13;1.00;;;13.00;74.10;;;;;;5032307;28;20028;-78
2022/05/30 06:32:17;;;;;;;2.50;1.13;;;13.10;74.10;;;;;;5023908;28;20033;-78
2022/05/30 06:34:42;;;;;;;2.35;1.15;;;13.20;74.10;;;;;;5033303;28;20389;-78
2022/05/30 06:37:10;;;;;;;2.60;1.40;;;13.30;74.00;;;;;;5008362;28;20102;-79
2022/05/30 06:39:36;;;;;;;2.60;1.25;;;13.40;74.70;;;;;;5022065;28;20112;-79
2022/05/30 06:42:02;;;;;;;2.95;1.30;;;13.40;73.90;;;;;;5033587;28;20143;-79
2022/05/30 06:44:28;;;;;;;3.78;1.20;;;13.60;73.90;;;;;;5036093;28;20029;-79
2022/05/30 06:46:54;;;;;;;2.33;1.30;;;13.60;73.90;;;;;;5021327;28;20412;-79
2022/05/30 06:49:19;;;;;;;2.30;1.27;;;13.70;73.80;;;;;;5027942;28;20063;-79
2022/05/30 06:51:45;;;;;;;2.60;1.30;;;13.80;73.60;;;;;;5012944;28;20092;-79
2022/05/30 06:54:11;;;;;;;2.10;1.10;;;13.80;73.60;;;;;;5035309;28;20346;-79
2022/05/30 06:58:12;;;;;;;2.60;1.10;;;13.90;73.30;;;;;;5019959;28;20040;-79
2022/05/30 06:59:30;;;;;;;1.77;1.00;;;14.00;73.20;;;;;;5019907;28;20064;-79
2022/05/30 07:01:58;;;;;;;3.03;1.17;;;14.00;72.90;;;;;;5018585;28;20387;-80
2022/05/30 07:04:23;;;;;;;1.83;1.03;;;14.10;72.70;;;;;;5035911;28;20448;-79
2022/05/30 07:06:51;;;;;;;3.25;0.85;;;14.20;72.50;;;;;;5008593;28;20033;-79
2022/05/30 07:09:17;;;;;;;2.88;0.80;;;14.20;71.90;;;;;;5034055;28;20535;-80
2022/05/30 07:11:43;;;;;;;2.70;0.70;;;14.20;71.40;;;;;;5011119;28;20060;-79
2022/05/30 07:14:12;;;;;;;3.67;0.93;;;14.30;71.20;;;;;;5028443;28;20647;-79
2022/05/30 07:16:39;;;;;;;1.17;0.68;;;14.30;71.00;;;;;;5022713;28;20044;-80
2022/05/30 07:19:07;;;;;;;3.08;0.90;;;14.30;70.80;;;;;;5027406;28;20129;-80
2022/05/30 07:21:33;;;;;;;2.03;0.80;;;14.40;70.60;;;;;;5015220;28;20044;-80
2022/05/30 07:23:58;;;;;;;2.08;0.70;;;14.40;70.20;;;;;;5018586;28;20130;-79
2022/05/30 07:26:24;;;;;;;0.93;0.47;;;14.50;70.20;;;;;;5021783;28;20056;-79
2022/05/30 07:28:53;;;;;;;1.33;0.50;;;14.50;70.20;;;;;;5019306;28;20055;-80
2022/05/30 07:31:20;;;;;;;3.65;0.80;;;14.60;70.20;;;;;;5032244;28;20113;-80
2022/05/30 07:33:48;;;;;;;2.15;0.77;;;14.70;70.20;;;;;;5022181;28;20041;-79
2022/05/30 07:36:21;;;;;;;3.20;0.90;;;14.80;70.20;;;;;;5033188;28;20678;-80
2022/05/30 07:38:47;;;;;;;1.35;0.68;;;14.90;69.60;;;;;;5010664;28;20037;-79
2022/05/30 07:41:14;;;;;;;1.77;0.70;;;15.10;71.60;;;;;;5020794;28;20159;-79
2022/05/30 07:43:40;;;;;;;1.60;0.70;;;15.40;73.40;;;;;;5010772;28;20110;-80
2022/05/30 07:46:08;;;;;;;2.03;0.90;;;15.70;74.30;;;;;;5007558;28;21975;-79
2022/05/30 07:48:35;;;;;;;2.10;0.90;;;16.10;74.40;;;;;;5022573;28;20041;-80
2022/05/30 07:51:01;;;;;;;3.10;0.80;;;16.70;74.70;;;;;;5028555;28;20341;-81
2022/05/30 07:53:28;;;;;;;2.28;0.70;;;17.10;74.40;;;;;;5010009;28;20029;-81
2022/05/30 07:55:53;;;;;;;1.88;0.80;;;17.60;74.00;;;;;;5028500;28;20033;-81
2022/05/30 07:58:19;;;;;;;1.73;0.77;;;18.10;73.50;;;;;;5020260;28;20029;-81
2022/05/30 08:00:47;;;;;;;3.38;0.80;;;18.60;73.80;;;;;;5025691;28;20037;-80
2022/05/30 08:03:14;;;;;;;1.83;0.83;;;19.10;73.20;;;;;;5031240;28;20036;-80
2022/05/30 08:05:43;;;;;;;1.58;0.77;;;19.60;72.50;;;;;;5029098;28;20081;-81
2022/05/30 08:08:09;;;;;;;1.85;0.80;;;20.00;71.20;;;;;;5012677;28;20098;-81
2022/05/30 08:10:35;;;;;;;1.75;0.70;;;20.30;69.70;;;;;;5028320;28;20076;-80
2022/05/30 08:13:01;;;;;;;1.93;0.77;;;20.70;69.80;;;;;;5015928;28;20373;-80
2022/05/30 08:15:26;;;;;;;5.38;0.93;;;21.00;69.60;;;;;;5029963;28;20029;-80
2022/05/30 08:17:57;;;;;;;1.13;0.87;;;21.40;69.50;;;;;;5024436;28;20045;-80
2022/05/30 08:20:24;;;;;;;1.47;0.80;;;21.80;67.70;;;;;;5036007;28;20291;-81
2022/05/30 08:22:50;;;;;;;1.65;1.00;;;22.20;69.30;;;;;;5010994;28;20040;-80
2022/05/30 08:25:18;;;;;;;2.63;0.82;;;22.70;68.80;;;;;;5024105;28;20033;-81
2022/05/30 08:27:45;;;;;;;2.00;0.70;;;23.20;66.90;;;;;;5034296;28;20100;-80
2022/05/30 08:30:13;;;;;;;1.33;0.73;;;23.40;64.50;;;;;;5009521;28;23209;-81
2022/05/30 08:32:42;;;;;;;1.05;0.70;;;23.60;61.60;;;;;;5036865;28;20395;-80
2022/05/30 08:35:09;;;;;;;1.75;0.90;;;23.60;59.90;;;;;;5025864;28;20736;-81
2022/05/30 08:37:37;;;;;;;2.05;0.70;;;23.50;60.70;;;;;;5036236;28;20048;-80
2022/05/30 08:43:15;;;;;;;1.60;0.80;;;23.40;56.80;;;;;;5018156;28;20317;-80
2022/05/30 08:45:43;;;;;;;1.60;0.80;;;23.30;57.90;;;;;;5013772;28;20033;-80
2022/05/30 08:48:15;;;;;;;2.38;0.80;;;23.10;58.20;;;;;;5000588;28;20333;-80
2022/05/30 08:50:47;;;;;;;1.30;0.73;;;23.10;58.60;;;;;;5027273;28;20013;-80
2022/05/30 08:53:40;;;;;;;1.10;0.67;;;23.10;58.60;;;;;;5040526;28;20082;-80
2022/05/30 08:56:34;;;;;;;1.85;0.70;;;23.10;55.70;;;;;;5034745;28;20536;-80
2022/05/30 08:59:18;;;;;;;2.10;0.80;;;23.00;55.00;;;;;;5025620;28;20029;-80
2022/05/30 09:01:50;;;;;;;2.28;0.80;;;22.90;56.80;;;;;;5020921;28;20049;-80
2022/05/30 09:04:21;;;;;;;1.50;0.80;;;22.70;56.00;;;;;;5028060;28;20061;-81
2022/05/30 09:06:49;;;;;;;1.87;0.90;;;22.50;55.70;;;;;;5025369;28;20046;-80
2022/05/30 09:09:42;;;;;;;1.33;0.70;;;22.40;55.80;;;;;;5014856;28;21129;-80
2022/05/30 09:12:27;;;;;;;1.40;0.70;;;22.20;54.20;;;;;;5023762;28;20036;-80
2022/05/30 09:15:04;;;;;;;1.98;0.80;;;21.90;53.70;;;;;;5021467;28;20029;-80
2022/05/30 09:17:40;;;;;;;1.77;0.80;;;21.60;53.70;;;;;;5023624;28;20508;-80
2022/05/30 09:20:11;;;;;;;1.47;0.57;;;21.40;53.90;;;;;;5026010;28;20051;-80
2022/05/30 09:22:38;;;;;;;1.42;0.77;;;21.10;54.10;;;;;;5023346;28;20040;-80
2022/05/30 09:27:49;;;;;;;1.90;0.70;;;20.70;54.70;;;;;;5046323;28;20048;-80
2022/05/30 09:30:21;;;;;;;2.47;0.80;;;20.40;54.60;;;;;;5021884;28;20079;-79
2022/05/30 09:33:25;;;;;;;1.13;0.65;;;20.20;54.20;;;;;;5029397;28;20025;-79
2022/05/30 09:36:15;;;;;;;1.60;0.80;;;20.10;53.90;;;;;;5020597;28;20473;-79
2022/05/30 09:38:43;;;;;;;1.00;0.70;;;19.90;54.20;;;;;;5010947;28;20044;-79
2022/05/30 09:41:25;;;;;;;1.35;0.60;;;19.70;55.10;;;;;;5008544;28;20682;-80
2022/05/30 09:44:03;;;;;;;2.53;0.73;;;19.60;54.30;;;;;;5034446;28;20397;-79
2022/05/30 09:46:37;;;;;;;2.60;0.60;;;19.50;55.30;;;;;;5027711;28;20056;-79
2022/05/30 09:49:10;;;;;;;1.48;0.70;;;19.50;56.30;;;;;;5008794;28;20487;-79
2022/05/30 09:51:50;;;;;;;3.17;0.80;;;19.40;56.00;;;;;;5031477;28;20043;-79
2022/05/30 09:54:25;;;;;;;2.35;0.80;;;19.50;55.10;;;;;;5032586;28;20490;-79
2022/05/30 09:57:07;;;;;;;2.80;0.90;;;19.50;55.20;;;;;;5024473;28;20068;-79
2022/05/30 09:59:38;;;;;;;1.92;1.05;;;19.50;55.70;;;;;;5038473;28;20400;-79
2022/05/30 10:02:24;;;;;;;2.22;0.70;;;19.60;56.30;;;;;;5024725;28;20182;-79
2022/05/30 10:05:21;;;;;;;1.58;0.90;;;19.70;55.30;;;;;;5016580;28;20037;-79
2022/05/30 10:07:59;;;;;;;1.67;0.90;;;19.80;55.20;;;;;;5024344;28;20576;-79
2022/05/30 10:10:37;;;;;;;3.50;0.90;;;19.80;55.60;;;;;;5039667;28;20040;-79
2022/05/30 10:13:08;;;;;;;3.20;1.00;;;19.80;55.50;;;;;;4998313;28;20059;-80
2022/05/30 10:15:43;;;;;;;3.08;0.90;;;19.90;56.60;;;;;;5048657;28;20051;-80
2022/05/30 10:18:16;;;;;;;1.65;0.80;;;20.00;56.30;;;;;;5047897;28;20281;-80
2022/05/30 10:21:12;;;;;;;1.80;0.90;;;20.30;56.70;;;;;;5039578;28;20477;-79
2022/05/30 10:30:02;;;;;;;1.70;0.98;;;21.70;56.60;;;;;;5039016;28;20029;-80
2022/05/30 10:32:49;;;;;;;1.75;1.00;;;22.20;57.00;;;;;;5047560;28;20056;-80
2022/05/30 10:35:23;;;;;;;1.08;0.90;;;22.60;55.90;;;;;;5029363;28;20053;-79
2022/05/30 10:38:30;;;;;;;1.90;0.90;;;23.00;56.20;;;;;;5015961;28;20702;-79
2022/05/30 10:41:24;;;;;;;2.05;0.80;;;23.30;53.60;;;;;;5010718;28;20254;-79
2022/05/30 10:43:52;;;;;;;1.25;0.80;;;23.60;52.10;;;;;;5005546;28;20441;-79
2022/05/30 10:46:33;;;;;;;1.95;0.80;;;23.60;53.40;;;;;;5033470;28;20088;-79
2022/05/30 10:49:13;;;;;;;2.20;1.00;;;23.60;50.90;;;;;;5030748;28;20157;-79
2022/05/30 10:51:50;;;;;;;2.27;0.80;;;23.50;50.10;;;;;;5022776;28;20030;-79
2022/05/30 10:54:38;;;;;;;1.45;0.90;;;23.30;50.40;;;;;;5027363;28;20540;-80
2022/05/30 10:57:47;;;;;;;1.00;0.80;;;23.20;49.10;;;;;;5032076;28;20301;-79
2022/05/30 11:00:17;;;;;;;1.65;0.80;;;23.00;49.10;;;;;;5025554;28;20029;-79
2022/05/30 11:02:48;;;;;;;1.10;0.80;;;22.80;49.90;;;;;;5027178;28;20040;-79
2022/05/30 11:05:59;;;;;;;1.57;1.00;;;22.60;49.70;;;;;;5021344;28;20560;-79
2022/05/30 11:08:49;;;;;;;2.33;0.88;;;22.50;49.70;;;;;;5044576;28;20047;-79
2022/05/30 11:11:39;;;;;;;1.45;0.75;;;22.30;49.20;;;;;;5024604;28;20040;-79
2022/05/30 11:14:17;;;;;;;1.30;0.70;;;22.20;50.50;;;;;;5010225;28;20057;-79
2022/05/30 11:16:58;;;;;;;1.60;0.90;;;22.20;50.10;;;;;;5028940;28;20064;-79
2022/05/30 11:19:29;;;;;;;1.40;0.90;;;22.20;50.20;;;;;;5048656;28;20041;-79
2022/05/30 11:22:05;;;;;;;1.60;0.80;;;22.20;50.90;;;;;;5020636;28;20306;-79
2022/05/30 11:24:33;;;;;;;1.80;0.90;;;22.20;50.60;;;;;;5046334;28;20037;-79
2022/05/30 11:27:05;;;;;;;1.17;0.90;;;22.30;52.40;;;;;;5029376;28;20234;-79
2022/05/30 11:29:39;;;;;;;1.40;0.90;;;22.60;53.70;;;;;;5020302;28;20045;-79
2022/05/30 11:32:31;;;;;;;2.17;1.00;;;23.10;53.90;;;;;;5030462;28;20154;-79
2022/05/30 11:35:16;;;;;;;1.30;0.90;;;23.70;51.60;;;;;;5038804;28;20037;-79
2022/05/30 11:38:00;;;;;;;1.45;0.80;;;24.10;54.30;;;;;;5046780;28;20112;-79
2022/05/30 11:40:54;;;;;;;1.50;1.00;;;24.50;52.50;;;;;;5040664;28;20045;-80
2022/05/30 11:43:44;;;;;;;1.23;0.98;;;24.80;48.90;;;;;;5039387;28;20048;-79
2022/05/30 11:46:18;;;;;;;1.53;0.97;;;24.70;47.80;;;;;;5011701;28;20591;-80
2022/05/30 11:48:59;;;;;;;1.25;0.88;;;24.50;47.00;;;;;;5028549;28;20044;-79
2022/05/30 11:51:28;;;;;;;1.70;0.80;;;24.30;45.90;;;;;;5035632;28;20083;-80
2022/05/30 11:54:21;;;;;;;2.42;1.08;;;24.10;46.40;;;;;;5020364;28;20078;-79
2022/05/30 11:57:05;;;;;;;2.78;1.10;;;23.90;45.40;;;;;;5032690;28;20390;-79
2022/05/30 11:59:52;;;;;;;2.20;1.00;;;23.60;46.00;;;;;;5036710;28;20077;-79
2022/05/30 12:02:25;;;;;;;1.42;1.00;;;23.30;45.80;;;;;;5021178;28;20033;-80
2022/05/30 12:05:14;;;;;;;1.67;0.90;;;23.10;46.70;;;;;;5033211;28;20116;-79
2022/05/30 12:08:01;;;;;;;1.20;0.90;;;22.90;46.20;;;;;;5039620;28;20071;-79
2022/05/30 12:10:54;;;;;;;1.67;0.90;;;22.80;46.20;;;;;;5027549;28;20540;-79
2022/05/30 12:13:25;;;;;;;2.03;1.10;;;22.70;46.60;;;;;;5024096;28;20025;-79
2022/05/30 12:16:11;;;;;;;2.10;1.00;;;22.60;47.60;;;;;;5036777;28;20061;-79
2022/05/30 12:24:39;;;;;;;1.80;0.90;;;22.60;48.70;;;;;;5022492;28;20029;-79
2022/05/30 12:27:30;;;;;;;1.30;1.10;;;22.60;48.30;;;;;;5032691;28;20405;-79
2022/05/30 12:29:57;;;;;;;1.67;0.93;;;22.60;47.80;;;;;;5027755;28;20048;-79
2022/05/30 12:32:24;;;;;;;3.10;1.63;;;22.60;48.20;;;;;;5008350;28;20482;-79
2022/05/30 12:35:32;;;;;;;2.33;1.10;;;22.70;48.70;;;;;;5057185;28;20048;-79
2022/05/30 12:38:13;;;;;;;2.17;1.17;;;22.80;47.80;;;;;;5038209;28;20071;-80
2022/05/30 12:40:52;;;;;;;1.73;1.10;;;22.90;47.70;;;;;;5025577;28;20492;-79
2022/05/30 12:43:23;;;;;;;2.72;1.20;;;23.10;48.50;;;;;;5024072;28;20337;-79
2022/05/30 12:45:55;;;;;;;1.92;1.20;;;23.20;47.70;;;;;;5046426;28;20040;-79
2022/05/30 12:48:23;;;;;;;2.15;1.20;;;23.30;47.30;;;;;;5018400;28;20040;-79
2022/05/30 12:50:52;;;;;;;2.53;1.25;;;23.40;47.50;;;;;;5052954;28;20790;-79
2022/05/30 12:53:20;;;;;;;1.97;1.33;;;23.40;46.80;;;;;;5042488;28;20746;-80
2022/05/30 12:55:52;;;;;;;1.42;1.30;;;23.30;46.60;;;;;;5011871;28;20033;-80
2022/05/30 12:58:29;;;;;;;2.20;1.13;;;23.30;46.20;;;;;;5038477;28;20640;-79
2022/05/30 13:01:21;;;;;;;2.08;1.17;;;23.30;45.90;;;;;;5033555;28;20028;-79
2022/05/30 13:04:07;;;;;;;2.58;1.40;;;23.20;45.00;;;;;;5023197;28;20025;-79
2022/05/30 13:07:02;;;;;;;2.40;1.50;;;23.10;45.30;;;;;;5042897;28;20283;-79
2022/05/30 13:09:43;;;;;;;2.25;1.40;;;23.00;45.90;;;;;;5026425;28;20473;-79
2022/05/30 13:12:11;;;;;;;2.63;1.35;;;23.00;45.80;;;;;;5023272;28;20029;-80
2022/05/30 13:14:39;;;;;;;2.47;1.30;;;23.00;46.40;;;;;;5031279;28;20041;-79
2022/05/30 13:17:13;;;;;;;2.42;1.35;;;23.00;46.90;;;;;;5031051;28;20037;-79
2022/05/30 13:19:55;;;;;;;2.17;1.60;;;22.90;46.00;;;;;;5021709;28;20095;-79
2022/05/30 13:22:36;;;;;;;2.42;1.60;;;23.00;46.50;;;;;;5034104;28;20311;-79
2022/05/30 13:25:05;;;;;;;2.25;1.40;;;23.00;45.90;;;;;;5039186;28;20036;-80
2022/05/30 13:27:30;;;;;;;2.08;1.40;;;23.00;46.70;;;;;;5028289;28;20457;-79
2022/05/30 13:30:05;;;;;;;2.07;1.40;;;23.00;46.30;;;;;;5027921;28;20037;-79
2022/05/30 13:32:32;;;;;;;1.90;1.35;;;22.90;45.90;;;;;;5028181;28;20170;-80
2022/05/30 13:35:00;;;;;;;2.30;1.48;;;22.90;46.20;;;;;;5022090;28;20033;-80